sensor_id;sensor_type;location;lat;lon;timestamp;pressure;altitude;pressure_sealevel;temperature;humidity
54918;BME280;40818;50.562;7.454;2023-04-06T00:09:35;97893.19;;;1.26;65.74
54918;BME280;40818;50.562;7.454;2023-04-06T00:19:39;97876.16;;;1.27;63.83
54918;BME280;40818;50.562;7.454;2023-04-06T00:29:45;97866.53;;;1.02;66.03
54918;BME280;40818;50.562;7.454;2023-04-06T00:39:48;97864.91;;;0.99;65.09
54918;BME280;40818;50.562;7.454;2023-04-06T00:49:54;97852.91;;;1.01;64.51
54918;BME280;40818;50.562;7.454;2023-04-06T00:59:58;97837.72;;;0.95;64.64
54918;BME280;40818;50.562;7.454;2023-04-06T02:37:01;97772.44;;;0.82;61.21
54918;BME280;40818;50.562;7.454;2023-04-06T02:47:05;97765.84;;;0.73;61.85
54918;BME280;40818;50.562;7.454;2023-04-06T02:57:13;97768.06;;;0.53;62.26
54918;BME280;40818;50.562;7.454;2023-04-06T03:07:19;97766.50;;;0.47;62.53
54918;BME280;40818;50.562;7.454;2023-04-06T03:17:25;97762.63;;;0.30;63.72
54918;BME280;40818;50.562;7.454;2023-04-06T03:27:33;97763.81;;;0.17;64.84
54918;BME280;40818;50.562;7.454;2023-04-06T03:37:41;97760.91;;;-0.05;66.38
54918;BME280;40818;50.562;7.454;2023-04-06T03:47:45;97762.59;;;-0.06;66.73
54918;BME280;40818;50.562;7.454;2023-04-06T03:57:51;97768.81;;;-0.18;66.95
54918;BME280;40818;50.562;7.454;2023-04-06T04:07:55;97774.72;;;-0.14;66.80
54918;BME280;40818;50.562;7.454;2023-04-06T04:18:03;97779.97;;;-0.22;67.24
54918;BME280;40818;50.562;7.454;2023-04-06T04:28:07;97773.22;;;-0.24;67.62
54918;BME280;40818;50.562;7.454;2023-04-06T04:38:15;97781.19;;;-0.40;69.14
54918;BME280;40818;50.562;7.454;2023-04-06T04:48:24;97785.34;;;-0.36;69.74
54918;BME280;40818;50.562;7.454;2023-04-06T04:58:35;97781.38;;;-0.49;70.46
54918;BME280;40818;50.562;7.454;2023-04-06T05:08:40;97783.91;;;-0.49;71.08
54918;BME280;40818;50.562;7.454;2023-04-06T05:18:47;97787.16;;;0.38;66.56
54918;BME280;40818;50.562;7.454;2023-04-06T05:28:51;97776.78;;;1.11;63.80
54918;BME280;40818;50.562;7.454;2023-04-06T05:38:58;97784.16;;;1.55;63.31
54918;BME280;40818;50.562;7.454;2023-04-06T05:49:09;97793.06;;;1.72;62.89
54918;BME280;40818;50.562;7.454;2023-04-06T05:59:16;97781.47;;;1.90;65.93
54918;BME280;40818;50.562;7.454;2023-04-06T06:09:21;97788.16;;;2.22;65.17
54918;BME280;40818;50.562;7.454;2023-04-06T06:19:37;97777.81;;;2.52;65.23
54918;BME280;40818;50.562;7.454;2023-04-06T06:29:42;97779.22;;;2.87;67.67
54918;BME280;40818;50.562;7.454;2023-04-06T06:39:48;97791.16;;;3.86;63.66
54918;BME280;40818;50.562;7.454;2023-04-06T06:49:53;97792.19;;;4.04;63.89
54918;BME280;40818;50.562;7.454;2023-04-06T07:00:00;97782.47;;;4.77;59.94
54918;BME280;40818;50.562;7.454;2023-04-06T07:10:06;97776.03;;;4.67;62.31
54918;BME280;40818;50.562;7.454;2023-04-06T07:20:15;97781.84;;;4.93;61.20
54918;BME280;40818;50.562;7.454;2023-04-06T07:30:19;97785.38;;;5.11;59.53
54918;BME280;40818;50.562;7.454;2023-04-06T07:40:26;97781.31;;;6.04;56.89
54918;BME280;40818;50.562;7.454;2023-04-06T07:50:31;97768.25;;;6.26;61.27
54918;BME280;40818;50.562;7.454;2023-04-06T08:00:37;97784.72;;;6.95;58.21
54918;BME280;40818;50.562;7.454;2023-04-06T08:10:41;97777.47;;;7.52;55.30
54918;BME280;40818;50.562;7.454;2023-04-06T08:20:47;97779.47;;;7.81;55.76
54918;BME280;40818;50.562;7.454;2023-04-06T08:30:51;97772.47;;;7.99;55.19
54918;BME280;40818;50.562;7.454;2023-04-06T08:40:57;97776.00;;;8.91;55.36
54918;BME280;40818;50.562;7.454;2023-04-06T08:51:02;97773.59;;;8.25;54.89
54918;BME280;40818;50.562;7.454;2023-04-06T09:01:11;97779.06;;;8.67;54.75
54918;BME280;40818;50.562;7.454;2023-04-06T09:11:15;97777.69;;;10.07;50.17
54918;BME280;40818;50.562;7.454;2023-04-06T09:21:22;97771.84;;;9.62;56.60
54918;BME280;40818;50.562;7.454;2023-04-06T09:31:27;97771.94;;;10.02;52.17
54918;BME280;40818;50.562;7.454;2023-04-06T09:41:36;97764.16;;;9.31;56.22
54918;BME280;40818;50.562;7.454;2023-04-06T09:51:40;97756.47;;;9.44;54.95
54918;BME280;40818;50.562;7.454;2023-04-06T10:01:48;97763.13;;;10.46;58.09
54918;BME280;40818;50.562;7.454;2023-04-06T10:11:55;97745.75;;;11.77;48.63
54918;BME280;40818;50.562;7.454;2023-04-06T10:22:02;97737.47;;;11.59;47.51
54918;BME280;40818;50.562;7.454;2023-04-06T10:32:08;97745.22;;;11.22;50.21
54918;BME280;40818;50.562;7.454;2023-04-06T10:42:14;97747.44;;;11.52;47.04
54918;BME280;40818;50.562;7.454;2023-04-06T10:52:17;97747.41;;;11.78;47.58
54918;BME280;40818;50.562;7.454;2023-04-06T11:02:23;97738.63;;;11.68;48.80
54918;BME280;40818;50.562;7.454;2023-04-06T11:12:28;97730.53;;;12.45;45.57
54918;BME280;40818;50.562;7.454;2023-04-06T11:22:34;97725.97;;;12.00;46.35
54918;BME280;40818;50.562;7.454;2023-04-06T11:32:40;97725.66;;;12.64;40.91
54918;BME280;40818;50.562;7.454;2023-04-06T11:42:52;97711.81;;;12.64;41.29
54918;BME280;40818;50.562;7.454;2023-04-06T11:52:59;97712.28;;;12.34;41.82
54918;BME280;40818;50.562;7.454;2023-04-06T12:03:06;97708.34;;;12.28;40.65
54918;BME280;40818;50.562;7.454;2023-04-06T12:13:09;97705.31;;;12.10;40.43
54918;BME280;40818;50.562;7.454;2023-04-06T12:23:15;97698.88;;;11.90;41.06
54918;BME280;40818;50.562;7.454;2023-04-06T12:33:19;97700.34;;;12.07;39.88
54918;BME280;40818;50.562;7.454;2023-04-06T12:43:24;97700.38;;;11.94;40.58
54918;BME280;40818;50.562;7.454;2023-04-06T12:53:28;97707.56;;;11.15;45.08
54918;BME280;40818;50.562;7.454;2023-04-06T13:03:34;97691.69;;;11.19;44.68
54918;BME280;40818;50.562;7.454;2023-04-06T13:13:37;97676.78;;;11.21;47.68
54918;BME280;40818;50.562;7.454;2023-04-06T13:23:44;97684.91;;;11.30;46.49
54918;BME280;40818;50.562;7.454;2023-04-06T13:33:47;97672.94;;;11.27;45.53
54918;BME280;40818;50.562;7.454;2023-04-06T13:43:53;97668.38;;;11.05;45.86
54918;BME280;40818;50.562;7.454;2023-04-06T13:53:58;97688.97;;;10.82;45.45
54918;BME280;40818;50.562;7.454;2023-04-06T14:04:04;97675.09;;;10.43;45.27
54918;BME280;40818;50.562;7.454;2023-04-06T14:14:07;97693.13;;;10.32;46.39
54918;BME280;40818;50.562;7.454;2023-04-06T14:24:14;97690.28;;;10.22;48.52
54918;BME280;40818;50.562;7.454;2023-04-06T14:34:18;97697.19;;;9.67;48.99
54918;BME280;40818;50.562;7.454;2023-04-06T14:44:24;97696.88;;;9.01;55.38
54918;BME280;40818;50.562;7.454;2023-04-06T14:54:28;97693.56;;;9.13;52.83
54918;BME280;40818;50.562;7.454;2023-04-06T15:04:36;97696.34;;;9.25;52.89
54918;BME280;40818;50.562;7.454;2023-04-06T15:14:39;97689.47;;;8.50;63.68
54918;BME280;40818;50.562;7.454;2023-04-06T15:24:45;97691.34;;;8.48;60.04
54918;BME280;40818;50.562;7.454;2023-04-06T15:34:49;97684.16;;;8.37;60.38
54918;BME280;40818;50.562;7.454;2023-04-06T15:44:55;97690.16;;;8.37;62.83
54918;BME280;40818;50.562;7.454;2023-04-06T15:54:59;97686.44;;;8.11;66.29
54918;BME280;40818;50.562;7.454;2023-04-06T16:05:05;97690.41;;;7.86;72.00
54918;BME280;40818;50.562;7.454;2023-04-06T16:15:10;97689.81;;;7.49;78.86
54918;BME280;40818;50.562;7.454;2023-04-06T16:25:19;97705.06;;;7.38;84.61
54918;BME280;40818;50.562;7.454;2023-04-06T16:35:23;97704.09;;;7.07;95.34
54918;BME280;40818;50.562;7.454;2023-04-06T16:45:29;97700.50;;;6.59;100.00
54918;BME280;40818;50.562;7.454;2023-04-06T16:55:33;97704.38;;;6.50;100.00
54918;BME280;40818;50.562;7.454;2023-04-06T17:05:39;97704.66;;;6.26;100.00
54918;BME280;40818;50.562;7.454;2023-04-06T17:15:44;97698.56;;;5.91;100.00
54918;BME280;40818;50.562;7.454;2023-04-06T17:25:50;97705.91;;;5.62;100.00
54918;BME280;40818;50.562;7.454;2023-04-06T17:35:54;97698.59;;;5.53;100.00
54918;BME280;40818;50.562;7.454;2023-04-06T17:46:00;97703.53;;;5.38;100.00
54918;BME280;40818;50.562;7.454;2023-04-06T17:56:04;97704.13;;;5.05;100.00
54918;BME280;40818;50.562;7.454;2023-04-06T18:06:13;97710.97;;;4.86;100.00
54918;BME280;40818;50.562;7.454;2023-04-06T18:16:17;97706.97;;;4.78;100.00
54918;BME280;40818;50.562;7.454;2023-04-06T18:26:24;97712.75;;;4.63;100.00
54918;BME280;40818;50.562;7.454;2023-04-06T18:36:28;97713.16;;;4.54;100.00
54918;BME280;40818;50.562;7.454;2023-04-06T18:46:34;97711.84;;;4.43;100.00
54918;BME280;40818;50.562;7.454;2023-04-06T18:56:38;97711.97;;;4.40;100.00
54918;BME280;40818;50.562;7.454;2023-04-06T19:06:44;97716.16;;;4.43;100.00
54918;BME280;40818;50.562;7.454;2023-04-06T19:16:48;97713.91;;;4.56;100.00
54918;BME280;40818;50.562;7.454;2023-04-06T19:26:56;97709.94;;;4.49;100.00
54918;BME280;40818;50.562;7.454;2023-04-06T19:36:59;97703.31;;;4.43;100.00
54918;BME280;40818;50.562;7.454;2023-04-06T19:47:06;97694.34;;;4.31;100.00
54918;BME280;40818;50.562;7.454;2023-04-06T19:57:11;97680.34;;;4.18;100.00
54918;BME280;40818;50.562;7.454;2023-04-06T20:07:17;97682.25;;;4.13;100.00
54918;BME280;40818;50.562;7.454;2023-04-06T20:17:21;97666.84;;;4.13;100.00
54918;BME280;40818;50.562;7.454;2023-04-06T20:27:27;97671.91;;;4.14;100.00
54918;BME280;40818;50.562;7.454;2023-04-06T20:37:30;97665.03;;;4.15;100.00
54918;BME280;40818;50.562;7.454;2023-04-06T20:47:37;97661.22;;;4.25;100.00
54918;BME280;40818;50.562;7.454;2023-04-06T20:57:41;97659.16;;;4.33;100.00
54918;BME280;40818;50.562;7.454;2023-04-06T21:07:47;97648.34;;;4.25;100.00
54918;BME280;40818;50.562;7.454;2023-04-06T21:17:50;97633.63;;;4.28;100.00
54918;BME280;40818;50.562;7.454;2023-04-06T21:27:56;97618.03;;;4.33;100.00
54918;BME280;40818;50.562;7.454;2023-04-06T21:38:00;97616.50;;;4.29;100.00
54918;BME280;40818;50.562;7.454;2023-04-06T21:48:06;97613.66;;;4.35;100.00
54918;BME280;40818;50.562;7.454;2023-04-06T21:58:10;97607.41;;;4.41;100.00
54918;BME280;40818;50.562;7.454;2023-04-06T22:08:16;97601.59;;;4.37;100.00
54918;BME280;40818;50.562;7.454;2023-04-06T22:18:20;97587.72;;;4.41;100.00
54918;BME280;40818;50.562;7.454;2023-04-06T22:28:26;97585.72;;;4.48;100.00
54918;BME280;40818;50.562;7.454;2023-04-06T22:38:30;97584.94;;;4.46;100.00
54918;BME280;40818;50.562;7.454;2023-04-06T22:48:36;97577.94;;;4.50;100.00
54918;BME280;40818;50.562;7.454;2023-04-06T22:58:39;97564.03;;;4.54;100.00
54918;BME280;40818;50.562;7.454;2023-04-06T23:08:45;97551.06;;;4.57;100.00
54918;BME280;40818;50.562;7.454;2023-04-06T23:18:49;97556.34;;;4.54;100.00
54918;BME280;40818;50.562;7.454;2023-04-06T23:28:55;97545.91;;;4.57;100.00
54918;BME280;40818;50.562;7.454;2023-04-06T23:38:58;97546.88;;;4.54;100.00
54918;BME280;40818;50.562;7.454;2023-04-06T23:49:04;97529.84;;;4.52;100.00
54918;BME280;40818;50.562;7.454;2023-04-06T23:59:08;97535.47;;;4.60;100.00
